Time;durP1;ratioP1;P1;durP2;ratioP2;P2;SDS_P1;SDS_P2;PMS_P1;PMS_P2;Temp;Humidity;BMP_temperature;BMP_pressure;BME280_temperature;BME280_humidity;BME280_pressure;Samples;Min_cycle;Max_cycle;Signal;HPM_P1;HPM_P2
2023/05/08 00:01:24;;;;;;;6.60;4.60;;;;;;;;;;107903;1251;23225;-79
2023/05/08 00:03:51;;;;;;;9.00;5.00;;;;;;;;;;107761;1250;22558;-80
2023/05/08 00:06:17;;;;;;;7.40;5.20;;;;;;;;;;107830;1250;22571;-77
2023/05/08 00:08:44;;;;;;;7.70;5.20;;;;;;;;;;107905;1250;22586;-78
2023/05/08 00:11:10;;;;;;;6.80;5.20;;;;;;;;;;107750;1250;23705;-77
2023/05/08 00:13:36;;;;;;;6.20;4.80;;;;;;;;;;107775;1250;25386;-77
2023/05/08 00:16:03;;;;;;;6.20;4.70;;;;;;;;;;107738;1249;22648;-76
2023/05/08 00:18:29;;;;;;;6.10;3.90;;;;;;;;;;107721;1251;22929;-76
2023/05/08 00:20:55;;;;;;;8.60;4.30;;;;;;;;;;107725;1251;22540;-77
2023/05/08 00:23:22;;;;;;;8.60;4.10;;;;;;;;;;107769;1249;22667;-77
2023/05/08 00:25:48;;;;;;;7.50;4.90;;;;;;;;;;110434;1249;23102;-79
2023/05/08 00:28:15;;;;;;;6.00;4.60;;;;;;;;;;110953;1247;22387;-77
2023/05/08 00:30:41;;;;;;;7.90;4.40;;;;;;;;;;111029;1247;22827;-77
2023/05/08 00:33:08;;;;;;;9.20;5.90;;;;;;;;;;111010;1247;22990;-77
2023/05/08 00:35:34;;;;;;;9.20;4.30;;;;;;;;;;111009;1247;22356;-79
2023/05/08 00:38:00;;;;;;;7.20;5.80;;;;;;;;;;111016;1247;23125;-77
2023/05/08 00:40:27;;;;;;;5.30;4.00;;;;;;;;;;111039;1247;22303;-79
2023/05/08 00:42:53;;;;;;;6.40;4.80;;;;;;;;;;110954;1247;22493;-79
2023/05/08 00:45:19;;;;;;;6.40;4.70;;;;;;;;;;107981;1248;22534;-77
2023/05/08 00:47:46;;;;;;;7.90;4.60;;;;;;;;;;107905;1250;22511;-77
2023/05/08 00:50:12;;;;;;;8.80;5.40;;;;;;;;;;107882;1247;24247;-78
2023/05/08 00:52:38;;;;;;;7.00;4.50;;;;;;;;;;107836;1248;22533;-77
2023/05/08 00:55:05;;;;;;;5.80;4.10;;;;;;;;;;107899;1252;22533;-79
2023/05/08 00:57:31;;;;;;;5.50;3.90;;;;;;;;;;107726;1247;22626;-77
2023/05/08 00:59:58;;;;;;;6.60;3.90;;;;;;;;;;107899;1247;22574;-77
2023/05/08 01:02:25;;;;;;;7.30;4.70;;;;;;;;;;107937;1247;24196;-79
2023/05/08 01:04:52;;;;;;;5.10;4.40;;;;;;;;;;107904;1252;22648;-79
2023/05/08 01:07:19;;;;;;;6.70;4.40;;;;;;;;;;107697;1247;22526;-79
2023/05/08 01:09:45;;;;;;;7.50;4.30;;;;;;;;;;107686;1247;22544;-77
2023/05/08 01:12:29;;;;;;;5.90;4.10;;;;;;;;;;107926;1247;24372;-77
2023/05/08 01:15:02;;;;;;;6.60;4.30;;;;;;;;;;107904;1247;25494;-78
2023/05/08 01:17:47;;;;;;;7.80;4.90;;;;;;;;;;107898;1247;22526;-77
2023/05/08 01:20:29;;;;;;;6.40;4.40;;;;;;;;;;107892;1247;22972;-79
2023/05/08 01:23:14;;;;;;;6.70;4.70;;;;;;;;;;107937;1252;22514;-77
2023/05/08 01:26:04;;;;;;;7.50;5.00;;;;;;;;;;107869;1247;22515;-80
2023/05/08 01:28:37;;;;;;;10.40;6.50;;;;;;;;;;107847;1248;22698;-79
2023/05/08 01:31:07;;;;;;;12.60;6.90;;;;;;;;;;107903;1247;24272;-76
2023/05/08 01:33:42;;;;;;;9.90;5.30;;;;;;;;;;107906;1248;24225;-77
2023/05/08 01:36:10;;;;;;;8.30;5.00;;;;;;;;;;107846;1247;24247;-77
2023/05/08 01:38:46;;;;;;;8.80;5.70;;;;;;;;;;107719;1254;22511;-77
2023/05/08 01:41:13;;;;;;;8.10;6.40;;;;;;;;;;107977;1247;23158;-77
2023/05/08 01:43:42;;;;;;;10.00;8.40;;;;;;;;;;107903;1247;23074;-77
2023/05/08 01:46:12;;;;;;;9.90;7.80;;;;;;;;;;107870;1252;25806;-79
2023/05/08 01:48:38;;;;;;;;;;;;;;;;;;107968;1248;24237;-77
2023/05/08 01:51:05;;;;;;;10.00;7.70;;;;;;;;;;107919;1247;22517;-77
2023/05/08 01:53:38;;;;;;;11.10;7.70;;;;;;;;;;107851;1250;23124;-78
2023/05/08 01:56:07;;;;;;;11.60;7.10;;;;;;;;;;107920;1248;22627;-77
2023/05/08 01:58:33;;;;;;;8.90;6.30;;;;;;;;;;107838;1247;164551;-77
2023/05/08 02:01:00;;;;;;;8.70;6.60;;;;;;;;;;107864;1250;22716;-77
2023/05/08 02:03:27;;;;;;;8.50;5.60;;;;;;;;;;107928;1247;22535;-77
2023/05/08 02:05:54;;;;;;;9.70;5.50;;;;;;;;;;107711;1248;22949;-77
2023/05/08 02:08:20;;;;;;;12.80;6.50;;;;;;;;;;107913;1248;22544;-79
2023/05/08 02:10:47;;;;;;;11.20;7.40;;;;;;;;;;107920;1247;22514;-77
2023/05/08 02:13:17;;;;;;;8.70;5.30;;;;;;;;;;107881;1247;22544;-79
2023/05/08 02:15:44;;;;;;;14.20;6.80;;;;;;;;;;108016;1247;26460;-79
2023/05/08 02:18:11;;;;;;;13.10;7.30;;;;;;;;;;107950;1247;22536;-77
2023/05/08 02:20:38;;;;;;;10.40;7.30;;;;;;;;;;107719;1250;25198;-77
2023/05/08 02:23:04;;;;;;;12.50;7.60;;;;;;;;;;107890;1248;22639;-77
2023/05/08 02:25:30;;;;;;;14.20;7.10;;;;;;;;;;107879;1248;23795;-79
2023/05/08 02:27:57;;;;;;;14.50;6.60;;;;;;;;;;107922;1248;22539;-79
2023/05/08 02:30:23;;;;;;;10.80;6.20;;;;;;;;;;107869;1251;22535;-77
2023/05/08 02:32:50;;;;;;;8.50;6.70;;;;;;;;;;107895;1247;25490;-79
2023/05/08 02:35:17;;;;;;;13.90;7.70;;;;;;;;;;107821;1250;22518;-79
2023/05/08 02:37:48;;;;;;;14.30;6.00;;;;;;;;;;107728;1251;24307;-77
2023/05/08 02:40:15;;;;;;;11.30;7.50;;;;;;;;;;107702;1249;25499;-77
2023/05/08 02:42:42;;;;;;;12.70;7.30;;;;;;;;;;107760;1250;24214;-79
2023/05/08 02:45:08;;;;;;;9.70;8.20;;;;;;;;;;107770;1250;22527;-79
2023/05/08 02:47:35;;;;;;;12.40;9.90;;;;;;;;;;107790;1253;23191;-79
2023/05/08 02:50:05;;;;;;;13.10;9.80;;;;;;;;;;107725;1250;24219;-78
2023/05/08 02:52:32;;;;;;;13.60;9.50;;;;;;;;;;107787;1250;25299;-77
2023/05/08 02:55:07;;;;;;;12.20;9.20;;;;;;;;;;107707;1251;23101;-79
2023/05/08 02:57:42;;;;;;;9.90;8.60;;;;;;;;;;107866;1247;22528;-77
2023/05/08 03:00:19;;;;;;;8.70;6.10;;;;;;;;;;107896;1247;22512;-79
2023/05/08 03:02:53;;;;;;;13.90;7.00;;;;;;;;;;107869;1251;25386;-77
2023/05/08 03:05:23;;;;;;;8.40;6.00;;;;;;;;;;107894;1248;22585;-79
2023/05/08 03:07:50;;;;;;;9.00;6.10;;;;;;;;;;107907;1247;22634;-79
2023/05/08 03:10:16;;;;;;;8.00;5.50;;;;;;;;;;110453;1247;22833;-77
2023/05/08 03:12:44;;;;;;;7.80;6.60;;;;;;;;;;110842;1247;22703;-79
2023/05/08 03:15:16;;;;;;;29.70;8.40;;;;;;;;;;111021;1247;23097;-75
2023/05/08 03:17:42;;;;;;;9.70;6.50;;;;;;;;;;110977;1247;22397;-75
2023/05/08 03:20:10;;;;;;;11.40;8.30;;;;;;;;;;111016;1247;22374;-75
2023/05/08 03:22:36;;;;;;;10.20;6.90;;;;;;;;;;110857;1247;23025;-78
2023/05/08 03:25:03;;;;;;;17.90;7.80;;;;;;;;;;111035;1247;22259;-78
2023/05/08 03:27:30;;;;;;;15.60;9.40;;;;;;;;;;109079;1248;22532;-79
2023/05/08 03:29:56;;;;;;;11.10;6.80;;;;;;;;;;107854;1253;22527;-79
2023/05/08 03:32:26;;;;;;;8.10;5.70;;;;;;;;;;107903;1247;24221;-77
2023/05/08 03:34:53;;;;;;;8.20;6.30;;;;;;;;;;107708;1247;25378;-77
2023/05/08 03:37:19;;;;;;;8.90;6.70;;;;;;;;;;107874;1248;22528;-79
2023/05/08 03:39:45;;;;;;;8.40;5.80;;;;;;;;;;107875;1248;25354;-79
2023/05/08 03:42:20;;;;;;;10.90;6.80;;;;;;;;;;107699;1251;22536;-78
2023/05/08 03:44:50;;;;;;;8.40;5.70;;;;;;;;;;107871;1247;22817;-77
2023/05/08 03:47:16;;;;;;;8.60;7.20;;;;;;;;;;107884;1248;22521;-78
2023/05/08 03:49:46;;;;;;;7.30;5.50;;;;;;;;;;107885;1248;22515;-79
2023/05/08 03:52:13;;;;;;;8.00;6.40;;;;;;;;;;108228;1248;22518;-77
2023/05/08 03:54:39;;;;;;;9.00;5.70;;;;;;;;;;107898;1247;22732;-79
2023/05/08 03:57:05;;;;;;;7.20;5.10;;;;;;;;;;107868;1247;22511;-76
2023/05/08 03:59:52;;;;;;;7.20;5.70;;;;;;;;;;107919;1247;22539;-76
2023/05/08 04:02:18;;;;;;;6.90;4.50;;;;;;;;;;107781;1250;22550;-79
2023/05/08 04:04:46;;;;;;;5.80;4.10;;;;;;;;;;107687;1251;22540;-77
2023/05/08 04:07:23;;;;;;;6.80;4.50;;;;;;;;;;107724;1250;24217;-77
2023/05/08 04:10:03;;;;;;;6.90;4.50;;;;;;;;;;107717;1253;22607;-76
2023/05/08 04:12:49;;;;;;;12.20;5.10;;;;;;;;;;108618;1249;22459;-80
2023/05/08 04:15:16;;;;;;;14.80;7.30;;;;;;;;;;110149;1250;22588;-76
2023/05/08 04:17:44;;;;;;;10.20;5.80;;;;;;;;;;107791;1251;22521;-79
2023/05/08 04:20:12;;;;;;;12.90;6.50;;;;;;;;;;107800;1253;22510;-80
2023/05/08 04:22:39;;;;;;;7.70;5.10;;;;;;;;;;107721;1251;22522;-79
2023/05/08 04:25:05;;;;;;;9.00;5.20;;;;;;;;;;107630;1253;25373;-77
2023/05/08 04:27:32;;;;;;;7.50;5.60;;;;;;;;;;107677;1250;22683;-77
2023/05/08 04:29:58;;;;;;;10.30;5.90;;;;;;;;;;107793;1247;23460;-77
2023/05/08 04:32:25;;;;;;;9.80;6.40;;;;;;;;;;107736;1247;27362;-79
2023/05/08 04:34:51;;;;;;;8.60;5.40;;;;;;;;;;107910;1248;25316;-77
2023/05/08 04:37:25;;;;;;;5.80;4.30;;;;;;;;;;107705;1247;22666;-80
2023/05/08 04:39:51;;;;;;;8.00;5.10;;;;;;;;;;108146;1247;24076;-79
2023/05/08 04:42:18;;;;;;;6.80;4.90;;;;;;;;;;107906;1247;25470;-79
2023/05/08 04:44:46;;;;;;;8.60;4.90;;;;;;;;;;107845;1247;25484;-80
2023/05/08 04:47:12;;;;;;;6.70;4.30;;;;;;;;;;107896;1252;23678;-79
2023/05/08 04:49:39;;;;;;;9.30;5.30;;;;;;;;;;107898;1248;24335;-77
2023/05/08 04:52:05;;;;;;;7.10;5.10;;;;;;;;;;107909;1248;26443;-77
2023/05/08 04:54:32;;;;;;;6.80;4.80;;;;;;;;;;107888;1247;22505;-77
2023/05/08 04:56:58;;;;;;;7.10;4.80;;;;;;;;;;107845;1248;23272;-77
2023/05/08 04:59:24;;;;;;;7.60;5.10;;;;;;;;;;107896;1248;24243;-79
2023/05/08 05:01:51;;;;;;;8.20;5.00;;;;;;;;;;108324;1248;25799;-80
2023/05/08 05:04:17;;;;;;;11.00;5.60;;;;;;;;;;107911;1252;22528;-77
2023/05/08 05:06:44;;;;;;;6.50;4.30;;;;;;;;;;107940;1252;22512;-77
2023/05/08 05:09:10;;;;;;;5.90;4.20;;;;;;;;;;107936;1247;26620;-77
2023/05/08 05:11:37;;;;;;;6.60;4.90;;;;;;;;;;108561;1247;23092;-78
2023/05/08 05:14:03;;;;;;;11.20;6.40;;;;;;;;;;108452;1250;22997;-80
2023/05/08 05:16:29;;;;;;;6.50;4.50;;;;;;;;;;107781;1247;22678;-77
2023/05/08 05:18:56;;;;;;;8.10;5.50;;;;;;;;;;107867;1247;23928;-77
2023/05/08 05:21:22;;;;;;;7.90;5.20;;;;;;;;;;107919;1248;23706;-79
2023/05/08 05:23:48;;;;;;;8.00;5.40;;;;;;;;;;107857;1248;22521;-79
2023/05/08 05:26:15;;;;;;;7.50;5.40;;;;;;;;;;107872;1247;25293;-79
2023/05/08 05:28:41;;;;;;;7.60;4.80;;;;;;;;;;108024;1253;25245;-77
2023/05/08 05:31:08;;;;;;;7.30;5.80;;;;;;;;;;109368;1247;23001;-80
2023/05/08 05:33:34;;;;;;;7.90;5.70;;;;;;;;;;107901;1252;22539;-77
2023/05/08 05:36:01;;;;;;;8.10;5.20;;;;;;;;;;107891;1247;22531;-77
2023/05/08 05:38:27;;;;;;;11.10;6.30;;;;;;;;;;108067;1247;22625;-77
2023/05/08 05:40:54;;;;;;;9.70;5.60;;;;;;;;;;110697;1247;22524;-80
2023/05/08 05:43:20;;;;;;;8.40;6.10;;;;;;;;;;108283;1248;25357;-77
2023/05/08 05:45:46;;;;;;;8.80;5.80;;;;;;;;;;107903;1253;22518;-80
2023/05/08 05:48:12;;;;;;;10.40;5.50;;;;;;;;;;108049;1248;22911;-77
2023/05/08 05:50:39;;;;;;;10.30;5.50;;;;;;;;;;108114;1252;22520;-77
2023/05/08 05:53:05;;;;;;;7.90;5.40;;;;;;;;;;108065;1251;22515;-77
2023/05/08 05:55:33;;;;;;;15.10;6.80;;;;;;;;;;108001;1248;25348;-76
2023/05/08 05:57:59;;;;;;;13.90;6.60;;;;;;;;;;108048;1247;22597;-78
2023/05/08 06:00:26;;;;;;;9.00;6.60;;;;;;;;;;108092;1247;22547;-79
2023/05/08 06:02:52;;;;;;;11.70;7.60;;;;;;;;;;107889;1254;25261;-78
2023/05/08 06:05:19;;;;;;;10.50;6.10;;;;;;;;;;108030;1252;25284;-78
2023/05/08 06:07:46;;;;;;;16.90;7.20;;;;;;;;;;107920;1248;22511;-77
2023/05/08 06:10:12;;;;;;;11.70;7.10;;;;;;;;;;108072;1248;24187;-78
2023/05/08 06:12:38;;;;;;;9.80;7.10;;;;;;;;;;108018;1252;22522;-79
2023/05/08 06:15:05;;;;;;;12.30;7.50;;;;;;;;;;107957;1251;23194;-76
2023/05/08 06:17:32;;;;;;;13.70;7.90;;;;;;;;;;107895;1248;22566;-76
2023/05/08 06:19:58;;;;;;;12.20;6.90;;;;;;;;;;108093;1253;22535;-76
2023/05/08 06:22:25;;;;;;;23.80;12.90;;;;;;;;;;108165;1252;22682;-76
2023/05/08 06:24:52;;;;;;;20.90;15.10;;;;;;;;;;108075;1247;23205;-78
2023/05/08 06:27:19;;;;;;;17.70;9.00;;;;;;;;;;108159;1248;22764;-77
2023/05/08 06:29:46;;;;;;;14.80;9.20;;;;;;;;;;108371;1252;22522;-76
2023/05/08 06:32:13;;;;;;;44.30;33.70;;;;;;;;;;110892;1247;23015;-79
2023/05/08 06:34:39;;;;;;;20.30;12.90;;;;;;;;;;108473;1247;22588;-80
2023/05/08 06:37:05;;;;;;;16.20;8.30;;;;;;;;;;108144;1248;22560;-77
2023/05/08 06:39:32;;;;;;;24.80;15.00;;;;;;;;;;108174;1253;22528;-80
2023/05/08 06:41:58;;;;;;;87.90;54.00;;;;;;;;;;108162;1248;22530;-77
2023/05/08 06:44:24;;;;;;;50.60;30.20;;;;;;;;;;108168;1247;22507;-79
2023/05/08 06:46:51;;;;;;;23.50;15.80;;;;;;;;;;108205;1252;25293;-79
2023/05/08 06:49:17;;;;;;;37.30;28.20;;;;;;;;;;108247;1252;23033;-76
2023/05/08 06:51:43;;;;;;;78.10;55.60;;;;;;;;;;108251;1248;22515;-79
2023/05/08 06:54:10;;;;;;;24.80;18.10;;;;;;;;;;108230;1248;22636;-77
2023/05/08 06:56:36;;;;;;;21.40;11.10;;;;;;;;;;108166;1247;24216;-77
2023/05/08 06:59:02;;;;;;;20.00;16.10;;;;;;;;;;108106;1247;22552;-77
2023/05/08 07:01:29;;;;;;;42.70;32.20;;;;;;;;;;108007;1252;22536;-77
2023/05/08 07:03:55;;;;;;;14.50;10.40;;;;;;;;;;107966;1252;25441;-77
2023/05/08 07:06:22;;;;;;;10.40;6.60;;;;;;;;;;108018;1247;22528;-79
2023/05/08 07:08:48;;;;;;;30.30;24.20;;;;;;;;;;108143;1247;22647;-79
2023/05/08 07:11:14;;;;;;;9.90;7.40;;;;;;;;;;107996;1247;22824;-76
2023/05/08 07:13:42;;;;;;;13.20;8.80;;;;;;;;;;108004;1252;22553;-79
2023/05/08 07:16:09;;;;;;;18.90;11.00;;;;;;;;;;108459;1247;24215;-77
2023/05/08 07:18:36;;;;;;;84.70;51.00;;;;;;;;;;107868;1250;22669;-79
2023/05/08 07:21:02;;;;;;;60.50;37.70;;;;;;;;;;107814;1248;25021;-79
2023/05/08 07:23:29;;;;;;;62.10;46.70;;;;;;;;;;107931;1248;22533;-79
2023/05/08 07:25:56;;;;;;;14.40;8.60;;;;;;;;;;108011;1247;22587;-79
2023/05/08 07:28:22;;;;;;;19.90;6.30;;;;;;;;;;108191;1250;22747;-80
2023/05/08 07:30:48;;;;;;;12.00;8.50;;;;;;;;;;108117;1247;22581;-79
2023/05/08 07:33:15;;;;;;;50.90;33.10;;;;;;;;;;108144;1250;24205;-79
2023/05/08 07:35:41;;;;;;;17.80;13.60;;;;;;;;;;107879;1248;25367;-79
2023/05/08 07:38:07;;;;;;;8.10;6.10;;;;;;;;;;108029;1248;22514;-77
2023/05/08 07:40:34;;;;;;;10.40;7.10;;;;;;;;;;107965;1250;22535;-79
2023/05/08 07:43:00;;;;;;;13.00;9.50;;;;;;;;;;107841;1250;24224;-77
2023/05/08 07:45:27;;;;;;;7.30;4.90;;;;;;;;;;107890;1248;24361;-79
2023/05/08 07:47:55;;;;;;;11.20;5.90;;;;;;;;;;107894;1248;22686;-77
2023/05/08 07:50:21;;;;;;;8.60;5.00;;;;;;;;;;108034;1251;22437;-79
2023/05/08 07:52:48;;;;;;;6.70;4.60;;;;;;;;;;107987;1250;22615;-79
2023/05/08 07:55:14;;;;;;;6.40;4.90;;;;;;;;;;107745;1253;22538;-79
2023/05/08 07:57:41;;;;;;;7.60;5.50;;;;;;;;;;107818;1250;22515;-77
2023/05/08 08:00:08;;;;;;;8.30;5.40;;;;;;;;;;107755;1255;22527;-77
2023/05/08 08:02:34;;;;;;;7.90;4.90;;;;;;;;;;107863;1252;22524;-77
2023/05/08 08:05:00;;;;;;;22.70;15.10;;;;;;;;;;107798;1252;22608;-79
2023/05/08 08:07:27;;;;;;;10.30;5.80;;;;;;;;;;108058;1250;22545;-77
2023/05/08 08:09:53;;;;;;;5.50;4.40;;;;;;;;;;108497;1250;25502;-79
2023/05/08 08:12:20;;;;;;;6.60;4.90;;;;;;;;;;107793;1251;22526;-77
2023/05/08 08:14:46;;;;;;;11.80;5.00;;;;;;;;;;107868;1250;22714;-77
2023/05/08 08:17:13;;;;;;;12.30;5.80;;;;;;;;;;107744;1250;22627;-76
2023/05/08 08:19:39;;;;;;;8.30;4.10;;;;;;;;;;107727;1253;25202;-79
2023/05/08 08:22:06;;;;;;;5.80;4.00;;;;;;;;;;108367;1247;22439;-80
2023/05/08 08:24:32;;;;;;;4.40;3.70;;;;;;;;;;107843;1251;22540;-79
2023/05/08 08:26:59;;;;;;;6.10;4.60;;;;;;;;;;107638;1255;22573;-79
2023/05/08 08:29:25;;;;;;;8.10;3.60;;;;;;;;;;107747;1250;24246;-77
2023/05/08 08:31:51;;;;;;;7.60;5.60;;;;;;;;;;107735;1253;25322;-77
2023/05/08 08:34:18;;;;;;;6.50;4.20;;;;;;;;;;107668;1253;22523;-77
2023/05/08 08:36:44;;;;;;;9.00;4.80;;;;;;;;;;107788;1251;22544;-80
2023/05/08 08:39:10;;;;;;;4.80;3.50;;;;;;;;;;107950;1251;22555;-77
2023/05/08 08:41:38;;;;;;;7.70;4.30;;;;;;;;;;107728;1252;22526;-77
2023/05/08 08:44:04;;;;;;;9.00;3.90;;;;;;;;;;107889;1254;24650;-77
2023/05/08 08:46:32;;;;;;;5.50;3.80;;;;;;;;;;107660;1251;25025;-77
2023/05/08 08:48:58;;;;;;;10.40;4.90;;;;;;;;;;107689;1250;22569;-77
2023/05/08 08:51:31;;;;;;;13.40;9.60;;;;;;;;;;107987;1253;22545;-77
2023/05/08 08:54:02;;;;;;;8.80;6.10;;;;;;;;;;107911;1250;24529;-80
2023/05/08 08:56:28;;;;;;;11.00;7.50;;;;;;;;;;107860;1253;22539;-79
2023/05/08 08:58:55;;;;;;;9.30;5.10;;;;;;;;;;107877;1251;25938;-77
2023/05/08 09:01:22;;;;;;;19.20;10.20;;;;;;;;;;107890;1253;22869;-80
2023/05/08 09:03:48;;;;;;;15.20;7.60;;;;;;;;;;107802;1251;25297;-79
2023/05/08 09:06:14;;;;;;;17.50;10.40;;;;;;;;;;107964;1253;22538;-77
2023/05/08 09:08:41;;;;;;;66.10;32.50;;;;;;;;;;107974;1256;25393;-77
2023/05/08 09:11:07;;;;;;;29.70;15.60;;;;;;;;;;108018;1251;24265;-79
2023/05/08 09:13:34;;;;;;;19.70;12.00;;;;;;;;;;108024;1251;22607;-77
2023/05/08 09:16:00;;;;;;;9.80;5.50;;;;;;;;;;107708;1250;24186;-77
2023/05/08 09:18:26;;;;;;;11.40;6.30;;;;;;;;;;108044;1251;22525;-77
2023/05/08 09:20:53;;;;;;;6.70;4.40;;;;;;;;;;107876;1248;22523;-79
2023/05/08 09:23:19;;;;;;;6.00;4.10;;;;;;;;;;107799;1249;23439;-77
2023/05/08 09:25:46;;;;;;;8.10;5.20;;;;;;;;;;107863;1248;25460;-77
2023/05/08 09:28:22;;;;;;;5.50;3.50;;;;;;;;;;107831;1250;22514;-79
2023/05/08 09:30:58;;;;;;;7.70;4.40;;;;;;;;;;107766;1251;22524;-80
2023/05/08 09:33:25;;;;;;;10.30;6.00;;;;;;;;;;107738;1251;22570;-79
2023/05/08 09:35:52;;;;;;;20.50;8.70;;;;;;;;;;108299;1250;22543;-77
2023/05/08 09:38:34;;;;;;;87.90;42.30;;;;;;;;;;107887;1251;22684;-77
2023/05/08 09:41:08;;;;;;;24.20;11.20;;;;;;;;;;107812;1251;25402;-79
2023/05/08 09:43:34;;;;;;;28.00;12.20;;;;;;;;;;107612;1250;22567;-77
2023/05/08 09:46:18;;;;;;;5.80;4.20;;;;;;;;;;107766;1251;24193;-77
2023/05/08 09:48:44;;;;;;;245.10;95.50;;;;;;;;;;107735;1254;22972;-80
2023/05/08 09:51:11;;;;;;;95.40;54.50;;;;;;;;;;107937;1253;24320;-80
2023/05/08 09:53:37;;;;;;;12.70;8.40;;;;;;;;;;107831;1253;22558;-79
2023/05/08 09:56:04;;;;;;;4.00;2.90;;;;;;;;;;107653;1250;23134;-77
2023/05/08 09:58:37;;;;;;;8.20;5.00;;;;;;;;;;107850;1252;23487;-79
2023/05/08 10:01:03;;;;;;;5.20;4.10;;;;;;;;;;107738;1251;24208;-79
2023/05/08 10:03:48;;;;;;;5.20;3.60;;;;;;;;;;107796;1250;25392;-80
2023/05/08 10:06:14;;;;;;;11.80;7.50;;;;;;;;;;107845;1248;25324;-80
2023/05/08 10:08:41;;;;;;;6.30;4.00;;;;;;;;;;107893;1253;22592;-80
2023/05/08 10:11:16;;;;;;;6.30;3.00;;;;;;;;;;107923;1251;22608;-79
2023/05/08 10:13:43;;;;;;;8.70;6.70;;;;;;;;;;107902;1253;24248;-77
2023/05/08 10:16:14;;;;;;;9.20;4.10;;;;;;;;;;107906;1247;23163;-77
2023/05/08 10:18:48;;;;;;;10.70;6.60;;;;;;;;;;108072;1254;22525;-80
2023/05/08 10:21:14;;;;;;;8.90;5.10;;;;;;;;;;107947;1255;23195;-79
2023/05/08 10:23:44;;;;;;;6.80;3.90;;;;;;;;;;108171;1253;22517;-79
2023/05/08 10:26:11;;;;;;;12.40;7.10;;;;;;;;;;107898;1250;25395;-79
2023/05/08 10:28:57;;;;;;;8.20;4.50;;;;;;;;;;107867;1253;24275;-79
2023/05/08 10:31:27;;;;;;;5.60;4.00;;;;;;;;;;107834;1251;22608;-76
2023/05/08 10:33:56;;;;;;;5.60;3.70;;;;;;;;;;107689;1253;22693;-76
2023/05/08 10:36:22;;;;;;;5.40;3.20;;;;;;;;;;107576;1251;22572;-80
2023/05/08 10:38:49;;;;;;;8.80;3.80;;;;;;;;;;107775;1253;24921;-80
2023/05/08 10:41:15;;;;;;;3.80;2.40;;;;;;;;;;107978;1253;23172;-77
2023/05/08 10:43:42;;;;;;;5.00;2.80;;;;;;;;;;107792;1248;26328;-79
2023/05/08 10:46:10;;;;;;;7.10;4.20;;;;;;;;;;107849;1250;22533;-76
2023/05/08 10:48:37;;;;;;;8.00;3.50;;;;;;;;;;108064;1253;22531;-77
2023/05/08 10:51:12;;;;;;;6.60;3.00;;;;;;;;;;107857;1253;23151;-76
2023/05/08 10:53:40;;;;;;;5.30;3.40;;;;;;;;;;107824;1251;22561;-77
2023/05/08 10:56:06;;;;;;;7.60;2.70;;;;;;;;;;107898;1251;22519;-80
2023/05/08 10:58:33;;;;;;;10.10;6.10;;;;;;;;;;107859;1251;22973;-77
2023/05/08 11:00:59;;;;;;;8.60;3.30;;;;;;;;;;108014;1247;22533;-77
2023/05/08 11:03:26;;;;;;;5.60;3.10;;;;;;;;;;107902;1251;25371;-80
2023/05/08 11:05:53;;;;;;;3.80;2.40;;;;;;;;;;107914;1250;24164;-77
2023/05/08 11:08:23;;;;;;;3.70;2.60;;;;;;;;;;107835;1251;24209;-77
2023/05/08 11:11:03;;;;;;;6.30;2.70;;;;;;;;;;107950;1248;25217;-79
2023/05/08 11:13:33;;;;;;;6.50;3.10;;;;;;;;;;107832;1248;24107;-77
2023/05/08 11:16:00;;;;;;;6.50;4.10;;;;;;;;;;107828;1248;22539;-77
2023/05/08 11:18:26;;;;;;;5.60;3.80;;;;;;;;;;107935;1251;24186;-78
2023/05/08 11:20:57;;;;;;;3.90;3.20;;;;;;;;;;107955;1248;23402;-76
2023/05/08 11:23:26;;;;;;;6.60;3.60;;;;;;;;;;107990;1248;25378;-79
2023/05/08 11:26:05;;;;;;;9.80;5.60;;;;;;;;;;107794;1253;25226;-76
2023/05/08 11:28:32;;;;;;;;;;;;;;;;;;107960;1248;26531;-76
2023/05/08 11:31:01;;;;;;;8.90;5.70;;;;;;;;;;107994;1252;25332;-79
2023/05/08 11:33:29;;;;;;;12.00;7.20;;;;;;;;;;107910;1254;22526;-76
2023/05/08 11:36:11;;;;;;;26.30;5.50;;;;;;;;;;107918;1247;25380;-77
2023/05/08 11:38:38;;;;;;;24.00;14.30;;;;;;;;;;108012;1252;26473;-77
2023/05/08 11:41:08;;;;;;;10.60;5.80;;;;;;;;;;108044;1248;24380;-76
2023/05/08 11:43:37;;;;;;;10.40;5.60;;;;;;;;;;107965;1253;22548;-80
2023/05/08 11:46:05;;;;;;;7.50;4.20;;;;;;;;;;107863;1248;22554;-77
2023/05/08 11:48:31;;;;;;;20.10;8.00;;;;;;;;;;107867;1253;25312;-77
2023/05/08 11:50:58;;;;;;;6.40;4.80;;;;;;;;;;107891;1248;23032;-77
2023/05/08 11:53:24;;;;;;;5.50;3.40;;;;;;;;;;107868;1253;22981;-80
2023/05/08 11:55:51;;;;;;;12.80;4.50;;;;;;;;;;107860;1251;22590;-79
2023/05/08 11:58:17;;;;;;;6.40;3.50;;;;;;;;;;108025;1253;22614;-77
2023/05/08 12:00:44;;;;;;;9.70;5.20;;;;;;;;;;108031;1250;24209;-81
2023/05/08 12:03:14;;;;;;;9.90;4.50;;;;;;;;;;107941;1253;23121;-77
2023/05/08 12:05:41;;;;;;;5.90;4.10;;;;;;;;;;107800;1250;23263;-80
2023/05/08 12:08:07;;;;;;;6.30;4.60;;;;;;;;;;108015;1248;25309;-80
2023/05/08 12:10:47;;;;;;;10.30;4.60;;;;;;;;;;107843;1248;23060;-80
2023/05/08 12:13:18;;;;;;;6.40;5.10;;;;;;;;;;107859;1254;24368;-79
2023/05/08 12:15:47;;;;;;;12.00;6.20;;;;;;;;;;107852;1250;24307;-79
2023/05/08 12:18:14;;;;;;;9.90;6.10;;;;;;;;;;107836;1251;22522;-80
2023/05/08 12:20:41;;;;;;;8.80;6.30;;;;;;;;;;107910;1254;25410;-80
2023/05/08 12:23:09;;;;;;;8.50;5.00;;;;;;;;;;107913;1248;22571;-77
2023/05/08 12:25:38;;;;;;;11.90;6.50;;;;;;;;;;107895;1248;23310;-77
2023/05/08 12:28:05;;;;;;;5.90;3.70;;;;;;;;;;107976;1253;23177;-80
2023/05/08 12:30:32;;;;;;;7.50;4.10;;;;;;;;;;107784;1253;23202;-80
2023/05/08 12:32:58;;;;;;;5.20;3.50;;;;;;;;;;107993;1253;22517;-77
2023/05/08 12:35:24;;;;;;;7.00;5.60;;;;;;;;;;107921;1248;24337;-77
2023/05/08 12:37:51;;;;;;;13.50;5.20;;;;;;;;;;108034;1251;23213;-77
2023/05/08 12:40:24;;;;;;;49.30;21.40;;;;;;;;;;107955;1252;26341;-77
2023/05/08 12:42:51;;;;;;;7.00;4.20;;;;;;;;;;107916;1249;25348;-77
2023/05/08 12:45:18;;;;;;;6.60;4.40;;;;;;;;;;107818;1247;22567;-77
2023/05/08 12:47:47;;;;;;;15.20;9.20;;;;;;;;;;107952;1250;22541;-77
2023/05/08 12:50:14;;;;;;;9.80;4.30;;;;;;;;;;107869;1247;24269;-80
2023/05/08 12:52:40;;;;;;;6.80;3.80;;;;;;;;;;107897;1251;24875;-79
2023/05/08 12:55:23;;;;;;;6.60;3.70;;;;;;;;;;107831;1248;25805;-77
2023/05/08 12:57:50;;;;;;;7.20;5.00;;;;;;;;;;107992;1248;26440;-77
2023/05/08 13:00:17;;;;;;;6.70;4.30;;;;;;;;;;107791;1251;24943;-80
2023/05/08 13:02:50;;;;;;;10.90;5.00;;;;;;;;;;107981;1248;22546;-77
2023/05/08 13:05:22;;;;;;;6.70;4.10;;;;;;;;;;107826;1253;22524;-77
2023/05/08 13:07:50;;;;;;;8.00;4.30;;;;;;;;;;107840;1251;26232;-77
2023/05/08 13:10:17;;;;;;;13.20;6.40;;;;;;;;;;108016;1249;22519;-79
2023/05/08 13:12:44;;;;;;;7.70;4.10;;;;;;;;;;107931;1248;22525;-80
2023/05/08 13:15:11;;;;;;;8.20;5.10;;;;;;;;;;108010;1250;25235;-77
2023/05/08 13:17:37;;;;;;;8.60;4.30;;;;;;;;;;107823;1253;23553;-77
2023/05/08 13:20:04;;;;;;;13.60;5.00;;;;;;;;;;107812;1253;25372;-77
2023/05/08 13:22:30;;;;;;;7.80;4.20;;;;;;;;;;107930;1251;22571;-79
2023/05/08 13:24:57;;;;;;;10.10;6.40;;;;;;;;;;107810;1251;22524;-77
2023/05/08 13:27:23;;;;;;;144.80;69.60;;;;;;;;;;107746;1251;26337;-78
2023/05/08 13:29:49;;;;;;;11.60;6.40;;;;;;;;;;107987;1251;22536;-77
2023/05/08 13:32:15;;;;;;;6.40;4.20;;;;;;;;;;108012;1248;22554;-79
2023/05/08 13:34:42;;;;;;;10.10;5.70;;;;;;;;;;107911;1248;26607;-77
2023/05/08 13:37:08;;;;;;;6.60;4.90;;;;;;;;;;107926;1251;22524;-79
2023/05/08 13:39:36;;;;;;;14.00;7.50;;;;;;;;;;107979;1251;22518;-80
2023/05/08 13:42:03;;;;;;;6.40;4.10;;;;;;;;;;107908;1252;25220;-77
2023/05/08 13:44:29;;;;;;;5.50;3.60;;;;;;;;;;107746;1253;22534;-77
2023/05/08 13:46:55;;;;;;;4.50;3.80;;;;;;;;;;107810;1251;22531;-77
2023/05/08 13:49:23;;;;;;;8.60;3.60;;;;;;;;;;107937;1253;22654;-77
2023/05/08 13:51:49;;;;;;;6.30;3.50;;;;;;;;;;107890;1251;25363;-77
2023/05/08 13:54:16;;;;;;;7.60;3.60;;;;;;;;;;107380;1250;61164;-79
2023/05/08 13:56:42;;;;;;;11.40;4.70;;;;;;;;;;106963;1248;61317;-79
2023/05/08 13:59:09;;;;;;;5.60;3.60;;;;;;;;;;107014;1249;172550;-79
2023/05/08 14:01:35;;;;;;;12.90;7.90;;;;;;;;;;107082;1253;61162;-78
2023/05/08 14:04:01;;;;;;;7.40;3.70;;;;;;;;;;106838;1251;61219;-79
2023/05/08 14:06:28;;;;;;;14.30;4.70;;;;;;;;;;106937;1250;61329;-79
2023/05/08 14:08:54;;;;;;;7.10;4.10;;;;;;;;;;107325;1251;59374;-79
2023/05/08 14:11:21;;;;;;;8.10;4.30;;;;;;;;;;107025;1251;61218;-76
2023/05/08 14:13:47;;;;;;;7.60;4.80;;;;;;;;;;107193;1253;61171;-77
2023/05/08 14:16:14;;;;;;;6.20;3.80;;;;;;;;;;107202;1247;61116;-77
2023/05/08 14:18:41;;;;;;;7.20;4.00;;;;;;;;;;107680;1250;22522;-79
2023/05/08 14:21:08;;;;;;;5.40;3.60;;;;;;;;;;107915;1250;22534;-80
2023/05/08 14:23:34;;;;;;;8.30;3.20;;;;;;;;;;108069;1251;24276;-78
2023/05/08 14:26:01;;;;;;;7.20;4.30;;;;;;;;;;109267;1250;25341;-79
2023/05/08 14:28:27;;;;;;;8.60;3.70;;;;;;;;;;107881;1250;22556;-79